Time;durP1;ratioP1;P1;durP2;ratioP2;P2;SDS_P1;SDS_P2;PMS_P1;PMS_P2;Temp;Humidity;BMP_temperature;BMP_pressure;BME280_temperature;BME280_humidity;BME280_pressure;Samples;Min_cycle;Max_cycle;Signal;HPM_P1;HPM_P2
2022/07/16 00:05:13;;;;;;;8.58;3.95;;;;;;;13.99;76.98;99384.44;4335046;82;20982;-86
2022/07/16 00:11:57;;;;;;;8.30;3.77;;;;;;;13.94;77.11;99380.67;4443378;79;21350;-87
2022/07/16 00:24:42;;;;;;;6.40;3.27;;;;;;;13.77;77.58;99371.19;4429723;78;21929;-86
2022/07/16 00:30:50;;;;;;;7.07;3.77;;;;;;;13.66;77.51;99366.22;4545654;77;20974;-86
2022/07/16 00:37:32;;;;;;;5.80;3.95;;;;;;;13.49;77.38;99358.68;4532562;77;20988;-86
2022/07/16 00:44:13;;;;;;;12.10;6.25;;;;;;;13.20;77.65;99361.65;4505745;76;21008;-86
2022/07/16 00:50:26;;;;;;;13.05;6.50;;;;;;;12.92;78.30;99357.30;4412451;77;55438;-86
2022/07/16 00:57:19;;;;;;;11.10;5.17;;;;;;;12.70;78.58;99355.56;3979411;84;21026;-87
2022/07/16 01:03:23;;;;;;;7.83;4.22;;;;;;;12.70;79.53;99344.56;4120616;84;21018;-86
2022/07/16 01:09:50;;;;;;;8.10;3.90;;;;;;;12.76;79.63;99344.42;4130306;84;21027;-86
2022/07/16 01:16:28;;;;;;;8.43;3.65;;;;;;;12.75;79.87;99349.11;4248734;81;35689;-86
2022/07/16 01:22:45;;;;;;;7.62;3.83;;;;;;;12.71;79.91;99336.52;4280621;81;21049;-86
2022/07/16 01:28:47;;;;;;;10.15;4.58;;;;;;;12.64;79.69;99335.88;4268530;81;21358;-86
2022/07/16 01:35:18;;;;;;;11.38;3.85;;;;;;;12.51;79.97;99334.61;4278445;81;21014;-86
2022/07/16 01:41:34;;;;;;;7.67;3.47;;;;;;;12.40;79.55;99330.37;4271567;81;21056;-86
2022/07/16 01:47:39;;;;;;;6.77;3.67;;;;;;;11.80;79.11;99324.08;4262540;81;21003;-86
2022/07/16 01:53:41;;;;;;;5.47;3.40;;;;;;;11.49;80.29;99326.62;4322589;79;20995;-86
2022/07/16 01:59:49;;;;;;;8.13;3.87;;;;;;;11.59;80.99;99325.18;4385744;79;20975;-86
2022/07/16 02:06:03;;;;;;;6.40;3.47;;;;;;;11.79;81.64;99315.65;4409499;79;20967;-85
2022/07/16 02:12:18;;;;;;;5.90;3.10;;;;;;;11.89;82.05;99318.50;4329613;79;21476;-85
2022/07/16 02:18:53;;;;;;;4.78;3.00;;;;;;;12.10;82.23;99320.11;4197192;82;20972;-85
2022/07/16 02:25:18;;;;;;;8.53;3.15;;;;;;;12.13;82.15;99314.44;4076232;84;21175;-86
2022/07/16 02:31:43;;;;;;;5.85;3.10;;;;;;;12.15;82.22;99308.77;4212286;82;21123;-85
2022/07/16 02:37:44;;;;;;;5.97;3.05;;;;;;;12.20;82.15;99308.43;4212365;82;21078;-87
2022/07/16 02:50:45;;;;;;;10.05;3.70;;;;;;;12.24;82.35;99309.84;4361659;79;21495;-86
2022/07/16 02:57:14;;;;;;;4.60;2.85;;;;;;;12.19;82.49;99315.67;4233661;81;21637;-85
2022/07/16 03:03:19;;;;;;;5.50;3.22;;;;;;;12.21;82.68;99309.23;4257756;81;20992;-86
2022/07/16 03:09:20;;;;;;;5.62;3.15;;;;;;;12.16;82.62;99301.33;4257728;81;79763;-94
2022/07/16 03:15:22;;;;;;;6.58;3.30;;;;;;;12.15;82.62;99310.14;4354813;80;21058;-94
2022/07/16 03:21:24;;;;;;;5.55;3.27;;;;;;;12.12;82.66;99314.24;4357504;80;20987;-93
2022/07/16 03:27:25;;;;;;;6.03;3.17;;;;;;;12.10;82.79;99310.50;4320630;80;21014;-94
2022/07/16 03:33:30;;;;;;;8.18;3.30;;;;;;;12.12;82.76;99315.02;4346425;80;21166;-94
2022/07/16 03:39:31;;;;;;;7.75;3.15;;;;;;;12.12;82.92;99319.73;4344715;80;21566;-93
2022/07/16 03:45:33;;;;;;;7.05;3.20;;;;;;;12.14;83.07;99325.61;4350938;80;21101;-94
2022/07/16 03:51:35;;;;;;;9.78;3.35;;;;;;;12.16;83.06;99333.69;4237439;82;21516;-94
2022/07/16 03:57:37;;;;;;;5.65;3.25;;;;;;;12.11;82.81;99332.66;4348308;80;21033;-94
2022/07/16 04:03:41;;;;;;;7.12;3.12;;;;;;;12.13;83.32;99319.36;4361328;80;21296;-93
2022/07/16 04:09:42;;;;;;;6.78;3.12;;;;;;;12.21;83.31;99333.36;4335946;80;21055;-93
2022/07/16 04:15:44;;;;;;;4.15;2.98;;;;;;;12.27;83.43;99329.67;4327426;80;20975;-92
2022/07/16 04:21:45;;;;;;;6.47;2.50;;;;;;;12.35;83.40;99337.61;4331975;80;21110;-93
2022/07/16 04:27:48;;;;;;;6.35;3.67;;;;;;;12.38;83.39;99339.59;4331431;80;21058;-92
2022/07/16 04:34:11;;;;;;;3.75;2.83;;;;;;;12.42;83.21;99333.54;4201606;80;73639;-86
2022/07/16 04:40:15;;;;;;;4.37;3.08;;;;;;;12.48;83.44;99331.25;4165478;84;21083;-86
2022/07/16 04:46:17;;;;;;;6.22;2.77;;;;;;;12.50;83.20;99324.20;4125434;85;21475;-86
2022/07/16 04:52:40;;;;;;;8.20;3.02;;;;;;;12.57;83.31;99322.10;4125817;85;21619;-86
2022/07/16 04:59:24;;;;;;;6.42;3.37;;;;;;;12.65;83.30;99320.39;4079705;84;21038;-86
2022/07/16 05:05:59;;;;;;;5.60;3.22;;;;;;;12.72;83.45;99321.64;4139474;84;21200;-85
2022/07/16 05:12:19;;;;;;;7.47;3.67;;;;;;;12.83;83.44;99326.59;4139586;84;21071;-86
2022/07/16 05:32:04;;;;;;;10.45;4.22;;;;;;;13.21;83.63;99317.86;4157405;84;21515;-87
2022/07/16 05:38:33;;;;;;;9.30;5.60;;;;;;;13.48;83.62;99314.48;4174018;84;21035;-87
2022/07/16 05:45:04;;;;;;;8.45;4.05;;;;;;;13.77;83.61;99318.11;4178230;83;21609;-87
2022/07/16 05:51:40;;;;;;;9.07;4.17;;;;;;;13.98;83.19;99310.70;4090442;84;21055;-86
2022/07/16 06:05:28;;;;;;;6.08;2.40;;;;;;;14.33;82.03;99312.76;4064974;85;21573;-86
2022/07/16 06:11:50;;;;;;;10.45;2.75;;;;;;;14.59;81.12;99313.78;4043819;86;21061;-86
2022/07/16 06:25:26;;;;;;;5.55;2.72;;;;;;;15.03;80.07;99307.25;4028987;84;20955;-86
2022/07/16 06:31:53;;;;;;;7.55;2.90;;;;;;;15.20;79.74;99302.28;4203196;83;21941;-87
2022/07/16 06:38:07;;;;;;;5.15;2.60;;;;;;;15.36;79.57;99303.98;4065497;85;21504;-86
2022/07/16 07:04:36;;;;;;;10.15;2.37;;;;;;;16.63;77.39;99295.05;4009414;87;21049;-87
2022/07/16 07:10:53;;;;;;;10.00;2.47;;;;;;;17.14;76.58;99298.51;4046470;87;21487;-88
2022/07/16 07:30:57;;;;;;;3.53;2.23;;;;;;;18.44;74.59;99291.91;3932153;89;21119;-87
2022/07/16 07:37:01;;;;;;;5.78;2.62;;;;;;;18.68;74.09;99284.56;3929995;89;21237;-88
2022/07/16 07:43:04;;;;;;;6.70;2.10;;;;;;;18.91;73.93;99286.56;3955233;88;21171;-88
2022/07/16 07:56:05;;;;;;;4.53;2.12;;;;;;;19.07;72.07;99278.34;3958173;89;21155;-88
2022/07/16 08:22:30;;;;;;;6.60;1.90;;;;;;;20.28;67.72;99269.86;4162218;84;21062;-88
2022/07/16 08:28:44;;;;;;;5.28;1.52;;;;;;;20.48;66.74;99262.25;4167677;84;21943;-88
2022/07/16 08:34:46;;;;;;;4.92;1.60;;;;;;;20.65;65.65;99253.28;4184855;84;21033;-87
2022/07/16 08:40:50;;;;;;;4.47;1.67;;;;;;;20.78;65.13;99249.98;4163426;84;21015;-88
2022/07/16 08:47:04;;;;;;;2.50;1.50;;;;;;;20.87;64.09;99249.53;4164238;84;21602;-89
2022/07/16 09:06:27;;;;;;;3.42;1.50;;;;;;;21.27;61.73;99236.13;4121781;84;21015;-85
2022/07/16 09:12:55;;;;;;;4.20;1.87;;;;;;;21.24;60.16;99239.19;4092936;86;21065;-87
2022/07/16 09:19:27;;;;;;;4.90;1.50;;;;;;;21.39;59.92;99227.80;4118571;86;21753;-86
2022/07/16 09:26:22;;;;;;;4.03;1.70;;;;;;;21.77;58.69;99223.73;4098037;86;21022;-86
2022/07/16 09:33:16;;;;;;;4.50;1.35;;;;;;;22.11;58.24;99212.73;4140624;84;21093;-86
2022/07/16 09:39:32;;;;;;;5.58;1.55;;;;;;;22.06;57.56;99212.49;4153045;84;21116;-86
2022/07/16 09:53:01;;;;;;;2.62;1.07;;;;;;;22.54;55.67;99211.52;4166328;84;21038;-87
2022/07/16 09:59:17;;;;;;;8.25;2.08;;;;;;;22.68;55.38;99210.24;4149250;84;21035;-87
2022/07/16 10:05:33;;;;;;;2.85;1.32;;;;;;;23.05;54.44;99212.91;4173464;85;21071;-87
2022/07/16 10:12:12;;;;;;;2.37;1.15;;;;;;;23.53;53.72;99203.20;4201877;83;21043;-85
2022/07/16 10:18:57;;;;;;;4.35;1.30;;;;;;;23.81;52.85;99201.31;4191758;83;21027;-86
2022/07/16 10:25:07;;;;;;;4.50;1.50;;;;;;;24.00;51.10;99198.80;4194740;83;21041;-86
2022/07/16 10:44:51;;;;;;;3.85;1.40;;;;;;;23.56;50.28;99185.52;4099072;84;74388;-86
2022/07/16 10:51:26;;;;;;;2.12;1.32;;;;;;;24.26;49.25;99167.95;4112511;84;21899;-86
2022/07/16 10:58:10;;;;;;;2.85;1.20;;;;;;;24.41;49.17;99181.52;4171178;85;21660;-87
2022/07/16 11:05:02;;;;;;;3.65;1.65;;;;;;;24.32;48.43;99165.48;4057373;86;21066;-87
2022/07/16 11:11:34;;;;;;;4.33;1.80;;;;;;;24.50;48.31;99156.34;4097684;86;21528;-86
2022/07/16 11:17:53;;;;;;;1.85;1.00;;;;;;;24.83;47.84;99162.15;4138884;86;21025;-88
2022/07/16 11:24:16;;;;;;;6.28;1.72;;;;;;;24.91;47.22;99151.59;4060349;86;21081;-86
2022/07/16 11:30:37;;;;;;;2.67;1.22;;;;;;;24.50;46.43;99151.54;4049677;86;21078;-86
2022/07/16 11:37:13;;;;;;;2.92;1.47;;;;;;;23.98;46.74;99155.13;4176877;83;21015;-86
2022/07/16 11:43:51;;;;;;;5.97;1.72;;;;;;;23.45;47.32;99154.41;3989494;87;21118;-86
2022/07/16 11:50:09;;;;;;;4.35;1.40;;;;;;;22.95;47.77;99158.86;3912820;86;21112;-88
2022/07/16 11:56:35;;;;;;;3.85;1.10;;;;;;;22.73;47.79;99159.45;4055877;87;21568;-87
2022/07/16 12:03:08;;;;;;;5.62;1.32;;;;;;;22.53;47.69;99164.55;4030878;87;21138;-88
2022/07/16 12:16:45;;;;;;;2.15;1.20;;;;;;;21.87;48.15;99168.30;4061315;85;21590;-86
2022/07/16 12:23:37;;;;;;;3.37;1.30;;;;;;;21.70;47.83;99165.42;4106008;85;22205;-86
2022/07/16 12:30:04;;;;;;;3.35;0.98;;;;;;;21.50;47.99;99169.79;4138984;85;21040;-87
2022/07/16 12:36:13;;;;;;;4.53;1.57;;;;;;;21.39;48.16;99171.35;4145951;85;21004;-88
2022/07/16 12:42:42;;;;;;;4.05;1.20;;;;;;;21.19;48.66;99171.52;4134913;84;21026;-87
2022/07/16 12:49:08;;;;;;;2.30;1.22;;;;;;;21.02;48.44;99174.20;4126735;84;21039;-87
2022/07/16 13:01:59;;;;;;;4.33;1.30;;;;;;;20.99;48.63;99162.55;4080284;85;21032;-88
2022/07/16 13:08:05;;;;;;;4.50;1.62;;;;;;;20.87;49.35;99156.91;4097960;86;21047;-87
2022/07/16 13:14:08;;;;;;;3.00;1.37;;;;;;;20.90;49.90;99154.05;4154163;85;21068;-87
2022/07/16 13:20:18;;;;;;;4.47;1.45;;;;;;;20.84;50.47;99154.41;4143701;85;21999;-86
2022/07/16 13:26:40;;;;;;;3.30;1.42;;;;;;;20.80;50.37;99152.92;4147179;85;21072;-87
2022/07/16 13:32:56;;;;;;;3.15;1.60;;;;;;;20.70;51.34;99143.67;4056378;86;21074;-87
2022/07/16 13:39:06;;;;;;;6.60;1.92;;;;;;;20.72;51.72;99145.39;4086611;85;21790;-87
2022/07/16 13:52:04;;;;;;;3.22;1.90;;;;;;;21.33;51.73;99118.20;4023414;87;21137;-87
2022/07/16 13:58:14;;;;;;;3.05;1.67;;;;;;;21.57;51.49;99118.66;4046630;85;21132;-86
2022/07/16 14:04:45;;;;;;;3.10;1.70;;;;;;;21.52;51.88;99121.39;4097362;85;21090;-86
2022/07/16 14:10:47;;;;;;;2.70;1.60;;;;;;;21.47;51.83;99117.00;4023472;88;21050;-86
2022/07/16 14:16:52;;;;;;;4.58;2.20;;;;;;;21.34;51.73;99115.60;4092602;86;21030;-86
2022/07/16 14:22:57;;;;;;;4.40;2.00;;;;;;;21.28;52.19;99113.17;4112600;86;21516;-86
2022/07/16 14:29:44;;;;;;;4.37;2.10;;;;;;;21.30;52.79;99103.77;4095015;86;21764;-86
2022/07/16 14:43:00;;;;;;;3.15;1.50;;;;;;;21.55;53.14;99103.79;4028752;87;21001;-86
2022/07/16 14:49:22;;;;;;;3.35;1.60;;;;;;;21.53;52.59;99098.52;4021273;87;21053;-86
2022/07/16 14:56:11;;;;;;;5.65;1.57;;;;;;;21.56;51.94;99094.20;4023717;87;21034;-86
2022/07/16 15:02:49;;;;;;;4.03;1.52;;;;;;;21.44;51.23;99095.59;4014587;87;21457;-88
2022/07/16 15:09:09;;;;;;;3.65;1.67;;;;;;;21.24;51.00;99104.16;4023873;87;21078;-86
2022/07/16 15:15:53;;;;;;;4.40;2.10;;;;;;;21.11;50.78;99101.96;4054631;87;21081;-87
2022/07/16 15:22:07;;;;;;;4.15;1.80;;;;;;;21.00;51.12;99107.69;4007659;87;21046;-88
2022/07/16 15:28:46;;;;;;;6.12;2.00;;;;;;;21.01;50.97;99102.28;4043090;87;21653;-86
2022/07/16 15:34:50;;;;;;;4.83;1.67;;;;;;;21.07;50.57;99102.69;3994958;88;21062;-87
2022/07/16 15:40:59;;;;;;;3.62;1.77;;;;;;;21.01;50.27;99118.38;4034204;85;21044;-86
2022/07/16 15:47:00;;;;;;;5.60;2.15;;;;;;;20.85;50.89;99123.17;4136287;85;21041;-87
2022/07/16 15:53:06;;;;;;;4.90;2.08;;;;;;;20.59;52.02;99120.14;4084421;85;21018;-87
2022/07/16 15:59:27;;;;;;;2.95;1.87;;;;;;;20.51;53.37;99127.11;4130560;85;20998;-87
2022/07/16 16:05:40;;;;;;;3.12;1.60;;;;;;;20.44;52.46;99128.70;4106068;85;21021;-87
2022/07/16 16:11:52;;;;;;;3.67;1.60;;;;;;;20.40;52.82;99139.91;4125335;85;21033;-87
2022/07/16 16:18:08;;;;;;;;;;;;;;;20.24;52.88;99152.43;4125740;85;21526;-87
2022/07/16 16:24:20;;;;;;;7.33;1.22;;;;;;;20.17;51.74;99192.30;4051330;86;20105;-86
2022/07/16 16:30:35;;;;;;;2.80;1.30;;;;;;;19.76;52.36;99214.89;4135364;85;21033;-88
2022/07/16 16:36:51;;;;;;;3.10;1.40;;;;;;;19.37;53.78;99237.16;4161586;85;21037;-87
2022/07/16 16:43:33;;;;;;;2.85;1.10;;;;;;;19.01;55.37;99262.61;4089682;86;21007;-88
2022/07/16 16:49:44;;;;;;;2.27;1.12;;;;;;;18.73;56.29;99283.30;4134697;86;21523;-87
2022/07/16 16:55:59;;;;;;;3.05;1.40;;;;;;;18.31;56.57;99297.22;4103701;86;21098;-86
2022/07/16 17:02:01;;;;;;;2.02;0.80;;;;;;;18.02;57.28;99304.39;4088390;86;21050;-87
2022/07/16 17:08:23;;;;;;;1.92;0.90;;;;;;;17.75;57.93;99329.86;4036388;87;21102;-85
2022/07/16 17:14:51;;;;;;;4.70;0.70;;;;;;;17.50;58.29;99330.75;3879031;90;21136;-87
2022/07/16 17:27:39;;;;;;;5.03;0.97;;;;;;;17.28;59.42;99352.90;4032737;87;21064;-84
2022/07/16 17:33:52;;;;;;;3.20;1.67;;;;;;;17.04;60.88;99382.95;4006318;87;21034;-84
2022/07/16 17:39:59;;;;;;;4.75;1.75;;;;;;;16.74;61.65;99402.17;4031473;86;21852;-86
2022/07/16 17:46:06;;;;;;;5.70;1.70;;;;;;;16.30;62.64;99391.73;4017799;87;21065;-86
2022/07/16 17:52:16;;;;;;;3.60;1.50;;;;;;;15.91;65.26;99388.99;4002724;87;21075;-85
2022/07/16 17:58:19;;;;;;;3.92;1.50;;;;;;;15.81;66.94;99399.47;4017275;87;21075;-86
2022/07/16 18:04:22;;;;;;;2.47;1.42;;;;;;;15.74;67.44;99410.55;4042582;86;21037;-85
2022/07/16 18:10:35;;;;;;;2.92;1.82;;;;;;;15.72;68.54;99425.33;4057021;86;21095;-85
2022/07/16 18:16:45;;;;;;;2.77;1.50;;;;;;;15.47;69.14;99428.92;4070769;86;21508;-85
2022/07/16 18:29:08;;;;;;;3.60;2.50;;;;;;;15.32;72.77;99442.52;4485690;77;27923;-86
2022/07/16 18:35:20;;;;;;;5.05;2.00;;;;;;;15.58;73.66;99444.86;4455454;80;20948;-86
2022/07/16 18:41:29;;;;;;;4.40;2.40;;;;;;;15.45;73.27;99433.27;4454174;78;20936;-87
2022/07/16 18:47:34;;;;;;;9.68;4.45;;;;;;;15.39;74.05;99440.38;4403841;78;21884;-86
2022/07/16 18:53:37;;;;;;;6.47;3.67;;;;;;;15.12;73.94;99428.14;4451989;78;21653;-86
2022/07/16 18:59:42;;;;;;;5.30;3.33;;;;;;;15.05;75.12;99443.33;4443625;78;21528;-87
2022/07/16 19:05:50;;;;;;;7.78;3.55;;;;;;;15.02;75.76;99456.48;4396576;78;21860;-87
2022/07/16 19:12:07;;;;;;;10.35;3.35;;;;;;;15.01;76.49;99476.40;4364404;81;21053;-86
2022/07/16 19:18:19;;;;;;;6.53;2.55;;;;;;;15.01;76.98;99490.19;4455991;78;20950;-86
2022/07/16 19:24:26;;;;;;;4.78;2.60;;;;;;;15.01;77.27;99508.69;4453641;78;21018;-86
2022/07/16 19:36:53;;;;;;;3.10;2.43;;;;;;;14.95;78.60;99549.65;4454340;78;20960;-85
2022/07/16 19:42:59;;;;;;;5.03;3.10;;;;;;;14.92;79.29;99552.39;4448998;78;21466;-87
2022/07/16 19:49:06;;;;;;;3.98;2.33;;;;;;;14.74;79.58;99555.67;4458569;80;20927;-87
2022/07/16 20:01:36;;;;;;;4.53;2.33;;;;;;;14.68;81.45;99549.76;4407924;80;21503;-86
2022/07/16 20:07:47;;;;;;;4.65;2.40;;;;;;;14.65;81.53;99543.65;4422585;79;21542;-85
2022/07/16 20:13:58;;;;;;;3.12;2.10;;;;;;;14.68;81.87;99546.20;4447746;79;21645;-86
2022/07/16 20:20:16;;;;;;;4.17;3.20;;;;;;;14.53;81.24;99542.63;4385987;79;21009;-86
2022/07/16 20:26:27;;;;;;;5.70;2.70;;;;;;;14.40;81.85;99540.59;4446537;78;20966;-86
2022/07/16 20:32:28;;;;;;;4.40;2.77;;;;;;;14.39;82.51;99555.55;4456676;79;21017;-86
2022/07/16 20:38:34;;;;;;;4.33;2.50;;;;;;;14.31;82.11;99546.47;4387233;79;20958;-86
2022/07/16 20:44:47;;;;;;;4.37;2.95;;;;;;;14.26;83.24;99574.36;4342324;81;21022;-86
2022/07/16 20:51:02;;;;;;;5.80;3.27;;;;;;;14.28;83.80;99584.41;4272493;82;21027;-85
2022/07/16 20:57:11;;;;;;;3.85;2.27;;;;;;;14.34;84.40;99591.71;4268202;82;21007;-85
2022/07/16 21:03:26;;;;;;;3.72;2.30;;;;;;;14.31;84.03;99593.28;4286622;82;21047;-85
2022/07/16 21:09:31;;;;;;;3.08;1.95;;;;;;;14.20;83.63;99587.66;4338678;81;21751;-87
2022/07/16 21:15:32;;;;;;;4.58;2.42;;;;;;;14.11;84.09;99592.72;4327528;81;21024;-85
2022/07/16 21:21:39;;;;;;;2.77;2.10;;;;;;;14.03;84.13;99592.47;4334937;81;21053;-86
2022/07/16 21:27:46;;;;;;;3.02;2.22;;;;;;;14.02;84.84;99604.66;4336007;80;22365;-86
2022/07/16 21:33:51;;;;;;;4.45;2.05;;;;;;;13.93;85.13;99600.09;4331303;80;21013;-86
2022/07/16 21:39:57;;;;;;;3.98;1.90;;;;;;;13.85;85.39;99598.45;4306259;81;21512;-85
2022/07/16 21:45:59;;;;;;;3.17;2.25;;;;;;;13.66;85.10;99611.06;4273845;81;21551;-86
2022/07/16 21:52:01;;;;;;;4.33;2.42;;;;;;;13.43;85.89;99626.98;4329890;80;21690;-86
2022/07/16 21:58:05;;;;;;;3.35;2.30;;;;;;;13.46;86.53;99639.97;4333145;80;21009;-85
2022/07/16 22:04:07;;;;;;;4.90;2.42;;;;;;;13.37;86.63;99641.45;4335107;80;21010;-85
2022/07/16 22:10:21;;;;;;;2.70;2.17;;;;;;;13.31;86.56;99654.72;4307844;80;21018;-85
2022/07/16 22:16:27;;;;;;;5.83;2.90;;;;;;;13.25;87.29;99659.59;4322647;80;21044;-85
2022/07/16 22:22:32;;;;;;;6.35;3.50;;;;;;;13.26;87.34;99667.46;4304112;81;21074;-84
2022/07/16 22:28:34;;;;;;;6.20;3.27;;;;;;;13.25;87.64;99669.98;4285264;80;21051;-85
2022/07/16 22:34:37;;;;;;;5.60;3.65;;;;;;;13.20;87.60;99675.05;4317257;81;21543;-86
2022/07/16 22:40:41;;;;;;;4.75;3.30;;;;;;;13.20;88.11;99678.56;4324897;80;21042;-85
2022/07/16 22:46:45;;;;;;;4.87;3.12;;;;;;;13.23;88.39;99683.34;4322727;80;21026;-85
2022/07/16 22:52:50;;;;;;;7.78;3.10;;;;;;;13.03;88.07;99688.00;4327846;80;21054;-85
2022/07/16 22:58:55;;;;;;;;;;;;;;;12.97;88.47;99694.94;4319663;80;21532;-84
2022/07/16 23:05:07;;;;;;;5.83;3.37;;;;;;;12.77;88.78;99692.92;4282609;81;20158;-85
2022/07/16 23:11:15;;;;;;;4.75;3.30;;;;;;;12.67;88.49;99695.54;4324244;81;20996;-86
2022/07/16 23:17:20;;;;;;;6.17;3.75;;;;;;;12.61;88.53;99706.04;4291157;80;21026;-85
2022/07/16 23:23:22;;;;;;;8.73;4.05;;;;;;;12.54;89.12;99709.47;4322169;80;21034;-84
2022/07/16 23:29:27;;;;;;;6.65;3.45;;;;;;;12.51;88.87;99704.72;4338753;80;22015;-84
2022/07/16 23:35:38;;;;;;;9.33;4.58;;;;;;;12.46;89.35;99702.89;4323323;80;21073;-85
2022/07/16 23:41:43;;;;;;;8.80;4.95;;;;;;;12.38;89.35;99700.62;4316457;80;21106;-85
2022/07/16 23:48:01;;;;;;;8.53;4.95;;;;;;;12.36;89.76;99702.14;4322335;80;21059;-85
2022/07/16 23:54:04;;;;;;;8.63;4.30;;;;;;;12.31;90.17;99701.88;4317639;80;21043;-85
